| time (UTC) | temp F | wind direction | speed MPH | gust MPH | rain 1hr in | rain 24hr in | rain mn in | humidity % | barometer mb |
| 20260901132111 | 65 | 294 | 1.0 | 8.0 | 0.00 | 0.00 | 0.00 | 67 | 1019.2 |
| 20260901131110 | 65 | 290 | 0.0 | 0.0 | 0.00 | 0.00 | 0.00 | 71 | 1019.3 |
| 20260901125110 | 65 | 342 | 1.0 | 6.0 | 0.00 | 0.00 | 0.00 | 67 | 1019.3 |
| 20260901121110 | 63 | 360 | 1.0 | 6.0 | 0.00 | 0.00 | 0.00 | 74 | 1019.3 |
| 20260901115110 | 63 | 317 | 1.0 | 7.0 | 0.00 | 0.00 | 0.00 | 72 | 1019.4 |
| 20260901114110 | 64 | 346 | 1.0 | 7.0 | 0.00 | 0.00 | 0.00 | 71 | 1019.3 |
| 20260901111110 | 62 | 302 | 1.0 | 8.0 | 0.00 | 0.00 | 0.00 | 77 | 1019.1 |
| 20260901103109 | 62 | 26 | 0.0 | 1.0 | 0.00 | 0.00 | 0.00 | 78 | 1018.9 |
| 20260901102109 | 62 | 26 | 1.0 | 4.0 | 0.00 | 0.00 | 0.00 | 80 | 1019.0 |
| 20260901101109 | 61 | 304 | 1.0 | 7.0 | 0.00 | 0.00 | 0.00 | 80 | 1018.7 |
| 20260901100109 | 61 | 360 | 2.0 | 8.0 | 0.00 | 0.00 | 0.00 | 79 | 1018.7 |
| 20260901093109 | 61 | 290 | 2.0 | 8.0 | 0.00 | 0.00 | 0.00 | 81 | 1018.5 |
| 20260901092109 | 60 | 293 | 0.0 | 2.0 | 0.00 | 0.00 | 0.00 | 82 | 1018.5 |
| 20260901090109 | 59 | 306 | 0.0 | 5.0 | 0.00 | 0.00 | 0.00 | 84 | 1018.4 |
| 20260901085109 | 59 | 295 | 1.0 | 14.0 | 0.00 | 0.00 | 0.00 | 83 | 1018.4 |
| 20260901084109 | 59 | 317 | 3.0 | 11.0 | 0.00 | 0.00 | 0.00 | 83 | 1018.2 |
| 20260901083109 | 59 | 322 | 0.0 | 5.0 | 0.00 | 0.00 | 0.00 | 84 | 1018.2 |
| 20260901081109 | 58 | 17 | 1.0 | 7.0 | 0.00 | 0.00 | 0.00 | 84 | 1018.3 |
| 20260901075109 | 58 | 9 | 1.0 | 6.0 | 0.00 | 0.10 | 0.00 | 85 | 1017.9 |
| 20260901074108 | 58 | 319 | 0.0 | 0.0 | 0.00 | 0.10 | 0.00 | 86 | 1017.9 |
| 20260901073108 | 58 | 319 | 0.0 | 1.0 | 0.00 | 0.10 | 0.00 | 86 | 1017.7 |
| 20260901072108 | 57 | 315 | 0.0 | 2.0 | 0.00 | 0.10 | 0.00 | 87 | 1017.7 |
| 20260901071108 | 57 | 315 | 1.0 | 8.0 | 0.00 | 0.10 | 0.00 | 87 | 1017.8 |
| 20260901070111 | 57 | 300 | 1.0 | 8.0 | 0.00 | 0.10 | 0.00 | 85 | 1017.8 |
| 20260901065111 | 57 | 307 | 0.0 | 1.0 | 0.00 | 0.41 | 0.00 | 85 | 1017.7 |
| 20260901064111 | 57 | 316 | 1.0 | 7.0 | 0.00 | 0.41 | 0.00 | 86 | 1017.5 |
| 20260901062111 | 56 | 321 | 0.0 | 2.0 | 0.00 | 0.41 | 0.00 | 89 | 1017.5 |
| 20260901061111 | 55 | 322 | 0.0 | 0.0 | 0.00 | 0.41 | 0.00 | 90 | 1017.3 |
| 20260901060111 | 55 | 322 | 0.0 | 0.0 | 0.00 | 0.41 | 0.00 | 90 | 1017.4 |
| 20260901055111 | 54 | 322 | 0.0 | 5.0 | 0.00 | 0.41 | 0.00 | 90 | 1017.3 |
| 20260901054111 | 54 | 325 | 0.0 | 1.0 | 0.00 | 0.41 | 0.00 | 91 | 1017.4 |
| 20260901052111 | 53 | 325 | 0.0 | 1.0 | 0.00 | 0.41 | 0.00 | 91 | 1017.2 |
| 20260901050110 | 53 | 325 | 0.0 | 5.0 | 0.00 | 0.41 | 0.00 | 91 | 1017.1 |
| 20260901045110 | 52 | 325 | 0.0 | 2.0 | 0.00 | 0.41 | 0.00 | 91 | 1017.0 |
| 20260901044110 | 52 | 325 | 0.0 | 1.0 | 0.00 | 0.41 | 0.00 | 92 | 1017.0 |
| 20260901041110 | 52 | 325 | 0.0 | 2.0 | 0.00 | 0.41 | 0.00 | 91 | 1016.8 |
| 20260901035110 | 51 | 325 | 0.0 | 0.0 | 0.00 | 0.41 | 0.00 | 91 | 1016.6 |
| 20260901034110 | 51 | 325 | 0.0 | 0.0 | 0.00 | 0.41 | 0.00 | 90 | 1016.5 |
| 20260901031109 | 51 | 325 | 0.0 | 0.0 | 0.00 | 0.41 | 0.00 | 89 | 1016.5 |
| 20260901024109 | 52 | 325 | 0.0 | 0.0 | 0.00 | 0.41 | 0.00 | 87 | 1016.5 |
| 20260901023109 | 52 | 325 | 0.0 | 0.0 | 0.00 | 0.41 | 0.00 | 87 | 1016.4 |
| 20260901022109 | 53 | 325 | 0.0 | 0.0 | 0.00 | 0.41 | 0.00 | 87 | 1016.5 |
| 20260901020109 | 53 | 325 | 0.0 | 0.0 | 0.00 | 0.41 | 0.00 | 87 | 1016.3 |
| 20260901015110 | 53 | 325 | 0.0 | 0.0 | 0.00 | 0.41 | 0.00 | 86 | 1016.2 |
| 20260901012109 | 54 | 323 | 0.0 | 6.0 | 0.00 | 0.41 | 0.00 | 86 | 1015.9 |
| 20260901010109 | 55 | 314 | 0.0 | 6.0 | 0.00 | 0.41 | 0.00 | 88 | 1016.0 |
| 20260901005109 | 55 | 303 | 0.0 | 1.0 | 0.00 | 0.41 | 0.00 | 89 | 1016.0 |
| 20260901003109 | 54 | 75 | 1.0 | 5.0 | 0.00 | 0.41 | 0.00 | 92 | 1015.6 |
| 20260901001109 | 54 | 112 | 0.0 | 0.0 | 0.00 | 0.41 | 0.00 | 93 | 1015.7 |
| 20260831234109 | 55 | 112 | 0.0 | 0.0 | 0.00 | 0.41 | 0.00 | 94 | 1015.7 |
| 20260831233108 | 54 | 112 | 0.0 | 0.0 | 0.00 | 0.41 | 0.00 | 94 | 1015.6 |
| 20260831232113 | 54 | 112 | 0.0 | 0.0 | 0.00 | 0.41 | 0.00 | 94 | 1015.7 |
| 20260831230113 | 54 | 112 | 0.0 | 1.0 | 0.00 | 0.41 | 0.00 | 94 | 1015.6 |
| 20260831225113 | 54 | 112 | 0.0 | 5.0 | 0.00 | 0.41 | 0.00 | 94 | 1015.7 |
| 20260831224113 | 54 | 112 | 0.0 | 0.0 | 0.00 | 0.41 | 0.00 | 94 | 1015.6 |
| 20260831223113 | 53 | 112 | 0.0 | 0.0 | 0.00 | 0.41 | 0.00 | 93 | 1015.5 |
| 20260831222113 | 54 | 112 | 0.0 | 0.0 | 0.00 | 0.41 | 0.00 | 93 | 1015.6 |
| 20260831220113 | 54 | 125 | 0.0 | 0.0 | 0.00 | 0.41 | 0.00 | 93 | 1015.5 |
| 20260831215113 | 54 | 125 | 0.0 | 0.0 | 0.00 | 0.41 | 0.41 | 93 | 1015.4 |
| 20260831213113 | 54 | 124 | 0.0 | 0.0 | 0.00 | 0.41 | 0.41 | 93 | 1015.3 |
| 20260831212113 | 54 | 125 | 0.0 | 0.0 | 0.00 | 0.41 | 0.41 | 92 | 1015.1 |
| 20260831210113 | 55 | 125 | 0.0 | 0.0 | 0.00 | 0.41 | 0.41 | 92 | 1015.3 |
| 20260831205113 | 55 | 125 | 0.0 | 0.0 | 0.00 | 0.41 | 0.41 | 92 | 1015.0 |
| 20260831202112 | 56 | 124 | 0.0 | 0.0 | 0.00 | 0.41 | 0.41 | 90 | 1015.0 |
| 20260831200112 | 56 | 124 | 0.0 | 0.0 | 0.00 | 0.41 | 0.41 | 90 | 1014.8 |
| 20260831192112 | 57 | 125 | 0.0 | 0.0 | 0.00 | 0.41 | 0.41 | 89 | 1014.5 |
| 20260831191113 | 57 | 125 | 0.0 | 0.0 | 0.00 | 0.41 | 0.41 | 88 | 1014.5 |
| 20260831190112 | 58 | 124 | 0.0 | 0.0 | 0.00 | 0.41 | 0.41 | 87 | 1014.5 |
| 20260831185112 | 58 | 124 | 0.0 | 0.0 | 0.00 | 0.41 | 0.41 | 86 | 1014.5 |
| 20260831184112 | 58 | 124 | 0.0 | 0.0 | 0.00 | 0.41 | 0.41 | 85 | 1014.5 |
| 20260831183112 | 59 | 124 | 0.0 | 0.0 | 0.00 | 0.41 | 0.41 | 84 | 1014.4 |
| 20260831175111 | 61 | 124 | 0.0 | 0.0 | 0.00 | 0.41 | 0.41 | 81 | 1013.7 |
| 20260831173111 | 62 | 125 | 0.0 | 0.0 | 0.00 | 0.41 | 0.41 | 79 | 1013.7 |
| 20260831164111 | 66 | 124 | 0.0 | 0.0 | 0.00 | 0.41 | 0.41 | 75 | 1013.9 |
| 20260831163111 | 66 | 125 | 0.0 | 1.0 | 0.00 | 0.41 | 0.41 | 74 | 1014.0 |
| 20260831160110 | 66 | 124 | 0.0 | 1.0 | 0.00 | 0.41 | 0.41 | 75 | 1013.9 |
| 20260831154110 | 66 | 123 | 1.0 | 6.0 | 0.00 | 0.41 | 0.41 | 74 | 1013.8 |
| 20260831153110 | 66 | 205 | 1.0 | 5.0 | 0.00 | 0.41 | 0.41 | 76 | 1014.0 |
| 20260831152110 | 66 | 204 | 1.0 | 6.0 | 0.00 | 0.41 | 0.41 | 78 | 1014.0 |
| 20260831151110 | 66 | 243 | 0.0 | 5.0 | 0.00 | 0.41 | 0.41 | 78 | 1014.0 |
| 20260831150110 | 67 | 292 | 0.0 | 1.0 | 0.00 | 0.41 | 0.41 | 78 | 1014.0 |
| 20260831145110 | 67 | 146 | 1.0 | 6.0 | 0.00 | 0.41 | 0.41 | 79 | 1013.9 |
| 20260831144110 | 67 | 194 | 1.0 | 10.0 | 0.00 | 0.41 | 0.41 | 81 | 1014.1 |
| 20260831141110 | 67 | 80 | 1.0 | 5.0 | 0.00 | 0.41 | 0.41 | 86 | 1014.1 |
| 20260831140110 | 66 | 134 | 0.0 | 5.0 | 0.00 | 0.41 | 0.41 | 89 | 1013.9 |
| 20260831135110 | 65 | 135 | 1.0 | 10.0 | 0.00 | 0.41 | 0.41 | 90 | 1014.0 |
| 20260831134110 | 64 | 135 | 1.0 | 10.0 | 0.00 | 0.41 | 0.41 | 92 | 1013.8 |